Time;durP1;ratioP1;P1;durP2;ratioP2;P2;SDS_P1;SDS_P2;PMS_P1;PMS_P2;Temp;Humidity;BMP_temperature;BMP_pressure;BME280_temperature;BME280_humidity;BME280_pressure;Samples;Min_cycle;Max_cycle;Signal;HPM_P1;HPM_P2
2021/07/16 00:00:35;;;;;;;15.47;13.43;;;16.10;99.90;;;;;;4995085;28;20289;-75
2021/07/16 00:03:02;;;;;;;20.63;14.33;;;16.10;99.90;;;;;;5007184;28;20291;-75
2021/07/16 00:05:29;;;;;;;20.13;15.07;;;16.10;99.90;;;;;;5007393;28;20241;-76
2021/07/16 00:07:55;;;;;;;18.20;14.67;;;16.20;99.90;;;;;;4995132;28;20275;-75
2021/07/16 00:10:23;;;;;;;20.10;14.87;;;16.40;99.90;;;;;;5008655;28;20296;-75
2021/07/16 00:12:50;;;;;;;20.37;14.23;;;16.40;99.90;;;;;;5014287;28;20751;-75
2021/07/16 00:15:19;;;;;;;19.57;13.93;;;16.50;99.90;;;;;;5014263;28;20304;-75
2021/07/16 00:17:49;;;;;;;20.27;14.77;;;16.50;99.90;;;;;;5012849;28;20685;-75
2021/07/16 00:20:16;;;;;;;18.90;14.43;;;16.60;99.90;;;;;;5013762;28;20232;-75
2021/07/16 00:22:43;;;;;;;19.97;14.87;;;16.60;99.90;;;;;;5014721;28;20612;-75
2021/07/16 00:25:12;;;;;;;17.80;14.27;;;16.60;99.90;;;;;;5014935;28;20203;-75
2021/07/16 00:27:39;;;;;;;20.43;14.83;;;16.60;99.90;;;;;;5014503;28;20289;-75
2021/07/16 00:30:09;;;;;;;18.20;14.47;;;16.60;99.90;;;;;;5014044;28;20654;-75
2021/07/16 00:32:37;;;;;;;16.73;14.60;;;16.70;99.90;;;;;;5014364;28;20609;-75
2021/07/16 00:35:06;;;;;;;20.70;14.63;;;16.70;99.90;;;;;;5014178;28;20288;-75
2021/07/16 00:37:33;;;;;;;16.83;14.20;;;16.70;99.90;;;;;;5013290;28;20701;-75
2021/07/16 00:40:00;;;;;;;19.13;13.57;;;16.70;99.90;;;;;;5014425;28;20308;-74
2021/07/16 00:42:27;;;;;;;18.23;13.60;;;16.70;99.90;;;;;;5013685;28;20293;-75
2021/07/16 00:44:54;;;;;;;18.67;13.47;;;16.70;99.90;;;;;;5004528;28;20297;-75
2021/07/16 00:47:21;;;;;;;18.60;14.37;;;16.70;99.90;;;;;;5000795;28;20200;-75
2021/07/16 00:49:48;;;;;;;21.73;14.93;;;16.70;99.90;;;;;;5013078;28;20237;-75
2021/07/16 00:52:16;;;;;;;17.97;14.43;;;16.70;99.90;;;;;;5009300;28;20285;-75
2021/07/16 00:54:43;;;;;;;19.87;14.60;;;16.80;99.90;;;;;;4994185;28;20292;-75
2021/07/16 00:57:10;;;;;;;19.10;14.53;;;16.70;99.90;;;;;;4999848;28;20300;-75
2021/07/16 00:59:38;;;;;;;19.67;14.40;;;16.80;99.90;;;;;;5013599;28;20284;-76
2021/07/16 01:02:06;;;;;;;18.00;13.87;;;16.70;99.90;;;;;;5013930;28;20781;-76
2021/07/16 01:04:33;;;;;;;17.87;14.80;;;16.70;99.90;;;;;;5013511;28;20276;-75
2021/07/16 01:07:00;;;;;;;19.93;14.67;;;16.80;99.90;;;;;;5007854;28;20198;-75
2021/07/16 01:09:28;;;;;;;18.20;14.83;;;16.70;99.90;;;;;;5004246;28;20319;-75
2021/07/16 01:11:56;;;;;;;20.70;14.67;;;16.70;99.90;;;;;;5012764;28;20284;-75
2021/07/16 01:14:23;;;;;;;19.03;14.97;;;16.80;99.90;;;;;;5013764;28;20296;-75
2021/07/16 01:16:50;;;;;;;16.57;14.27;;;16.70;99.90;;;;;;5012793;28;20340;-75
2021/07/16 01:19:41;;;;;;;19.37;14.53;;;16.70;99.90;;;;;;5012401;28;20295;-76
2021/07/16 01:22:11;;;;;;;17.27;14.73;;;16.80;99.90;;;;;;4994471;28;20292;-76
2021/07/16 01:24:39;;;;;;;17.57;14.20;;;16.70;99.90;;;;;;4994274;28;20233;-76
2021/07/16 01:27:06;;;;;;;18.77;13.90;;;16.80;99.90;;;;;;4994250;28;20244;-75
2021/07/16 01:29:34;;;;;;;16.40;13.73;;;16.80;99.90;;;;;;4996786;28;20677;-75
2021/07/16 01:32:01;;;;;;;19.73;15.27;;;17.90;99.90;;;;;;5013877;28;20300;-75
2021/07/16 01:34:28;;;;;;;17.73;14.70;;;16.80;99.90;;;;;;5013565;28;20276;-76
2021/07/16 01:36:55;;;;;;;18.07;14.33;;;16.80;99.90;;;;;;4993647;28;20320;-76
2021/07/16 01:39:22;;;;;;;20.13;14.70;;;16.70;99.90;;;;;;4994316;28;20229;-75
2021/07/16 01:41:51;;;;;;;18.27;13.70;;;16.80;99.90;;;;;;4993919;28;20288;-75
2021/07/16 01:44:17;;;;;;;17.70;13.80;;;16.70;99.90;;;;;;4993383;28;20737;-75
2021/07/16 01:46:44;;;;;;;18.80;14.60;;;16.80;99.90;;;;;;4995205;28;20229;-75
2021/07/16 01:49:11;;;;;;;15.97;13.57;;;16.70;99.90;;;;;;5012773;28;20233;-75
2021/07/16 01:51:38;;;;;;;17.43;14.37;;;16.80;99.90;;;;;;4996567;28;20272;-75
2021/07/16 01:54:05;;;;;;;19.87;14.83;;;16.80;99.90;;;;;;4999058;28;20893;-75
2021/07/16 01:56:32;;;;;;;18.90;14.50;;;16.80;99.90;;;;;;4992924;28;20265;-75
2021/07/16 01:59:01;;;;;;;20.07;15.13;;;16.80;99.90;;;;;;4993081;28;20293;-75
2021/07/16 02:01:28;;;;;;;19.63;14.63;;;16.80;99.90;;;;;;5005277;28;20240;-75
2021/07/16 02:03:55;;;;;;;19.77;15.17;;;16.80;99.90;;;;;;5000583;28;20300;-76
2021/07/16 02:06:23;;;;;;;18.17;14.43;;;16.80;99.90;;;;;;4997398;28;20237;-75
2021/07/16 02:08:49;;;;;;;20.00;14.23;;;16.80;99.90;;;;;;5001502;28;20320;-75
2021/07/16 02:11:21;;;;;;;17.40;14.60;;;16.80;99.90;;;;;;5010722;28;21371;-75
2021/07/16 02:13:48;;;;;;;19.03;14.20;;;16.80;99.90;;;;;;5002298;28;20281;-75
2021/07/16 02:16:16;;;;;;;19.93;15.10;;;16.80;99.90;;;;;;5004014;28;20287;-75
2021/07/16 02:18:48;;;;;;;17.80;14.33;;;16.80;99.90;;;;;;5012720;28;20283;-76
2021/07/16 02:21:15;;;;;;;18.07;14.67;;;16.80;99.90;;;;;;5011228;28;20292;-75
2021/07/16 02:23:42;;;;;;;19.23;14.60;;;16.80;99.90;;;;;;5003436;28;20289;-75
2021/07/16 02:26:09;;;;;;;19.33;14.53;;;16.80;99.90;;;;;;5008548;28;20300;-75
2021/07/16 02:28:36;;;;;;;20.37;14.40;;;16.80;99.90;;;;;;5012491;28;20225;-75
2021/07/16 02:31:05;;;;;;;18.00;15.33;;;16.70;99.90;;;;;;5011612;28;20237;-75
2021/07/16 02:33:34;;;;;;;16.93;14.53;;;16.80;99.90;;;;;;4992579;28;20645;-75
2021/07/16 02:36:02;;;;;;;18.80;15.40;;;16.80;99.90;;;;;;4992181;28;20764;-76
2021/07/16 02:38:29;;;;;;;20.63;16.53;;;16.80;99.90;;;;;;4992318;28;20265;-75
2021/07/16 02:40:56;;;;;;;18.07;15.40;;;16.80;99.90;;;;;;5009788;28;20284;-75
2021/07/16 02:43:23;;;;;;;18.03;14.97;;;16.80;99.90;;;;;;5012170;28;20309;-75
2021/07/16 02:45:51;;;;;;;19.37;15.80;;;16.80;99.90;;;;;;5012109;28;20315;-75
2021/07/16 02:48:18;;;;;;;19.40;15.57;;;16.80;99.90;;;;;;5012180;28;20285;-75
2021/07/16 02:50:48;;;;;;;18.40;15.60;;;16.80;99.90;;;;;;5011987;28;20295;-75
2021/07/16 02:53:20;;;;;;;19.20;15.53;;;16.90;99.90;;;;;;5012214;28;20291;-76
2021/07/16 02:55:47;;;;;;;17.90;15.53;;;16.80;99.90;;;;;;5011514;28;20201;-75
2021/07/16 02:58:15;;;;;;;18.53;15.47;;;16.90;99.90;;;;;;5011672;28;20252;-76
2021/07/16 03:00:42;;;;;;;18.97;14.90;;;16.90;99.90;;;;;;4999593;28;20234;-76
2021/07/16 03:03:09;;;;;;;18.37;15.53;;;16.90;99.90;;;;;;5011411;28;20300;-75
2021/07/16 03:05:37;;;;;;;18.57;15.37;;;16.80;99.90;;;;;;5011723;28;20288;-76
2021/07/16 03:08:08;;;;;;;21.80;16.17;;;16.90;99.90;;;;;;5011695;28;20335;-75
2021/07/16 03:10:36;;;;;;;18.87;15.90;;;16.90;99.90;;;;;;5011583;28;20284;-75
2021/07/16 03:13:06;;;;;;;20.97;15.50;;;16.90;99.90;;;;;;5012210;28;20233;-76
2021/07/16 03:15:34;;;;;;;18.67;16.63;;;16.90;99.90;;;;;;5011941;28;20324;-75
2021/07/16 03:18:02;;;;;;;18.73;15.57;;;17.00;99.90;;;;;;5011901;28;20312;-75
2021/07/16 03:20:30;;;;;;;20.37;15.53;;;16.90;99.90;;;;;;5010946;28;20236;-76
2021/07/16 03:22:59;;;;;;;18.73;15.90;;;16.90;99.90;;;;;;5012110;28;20288;-75
2021/07/16 03:25:28;;;;;;;21.83;16.67;;;17.00;99.90;;;;;;5010970;28;20292;-75
2021/07/16 03:27:56;;;;;;;20.03;16.33;;;17.00;99.90;;;;;;5011010;28;20740;-75
2021/07/16 03:30:26;;;;;;;20.40;16.57;;;16.90;99.90;;;;;;5011579;28;20740;-75
2021/07/16 03:32:53;;;;;;;21.30;15.93;;;16.90;99.90;;;;;;5011591;28;20301;-76
2021/07/16 03:35:20;;;;;;;17.83;15.93;;;17.00;99.90;;;;;;5011790;28;20649;-76
2021/07/16 03:37:47;;;;;;;18.47;15.83;;;16.90;99.90;;;;;;5011487;28;20228;-75
2021/07/16 03:40:16;;;;;;;18.70;16.70;;;16.90;99.90;;;;;;5011462;28;20308;-76
2021/07/16 03:42:45;;;;;;;18.57;16.20;;;16.90;99.90;;;;;;5011421;28;20304;-75
2021/07/16 03:45:15;;;;;;;22.20;17.00;;;16.80;99.90;;;;;;5010571;28;20239;-76
2021/07/16 03:47:43;;;;;;;21.23;16.17;;;16.80;99.90;;;;;;5011468;28;20576;-76
2021/07/16 03:50:10;;;;;;;18.80;16.13;;;16.70;99.90;;;;;;5001378;28;20241;-76
2021/07/16 03:52:37;;;;;;;20.23;16.53;;;16.60;99.90;;;;;;5005978;28;20232;-75
2021/07/16 03:55:08;;;;;;;19.33;15.63;;;16.60;99.90;;;;;;5005391;28;20612;-76
2021/07/16 03:57:35;;;;;;;20.57;16.00;;;16.50;99.90;;;;;;5011457;28;20233;-76
2021/07/16 04:00:05;;;;;;;20.90;17.33;;;16.40;99.90;;;;;;5011238;28;20201;-75
2021/07/16 04:02:34;;;;;;;18.83;15.90;;;16.30;99.90;;;;;;5002680;28;20572;-75
2021/07/16 04:05:01;;;;;;;20.60;17.07;;;16.20;99.90;;;;;;5011365;28;20290;-75
2021/07/16 04:07:30;;;;;;;18.20;16.23;;;16.10;99.90;;;;;;5011062;28;20198;-75
2021/07/16 04:09:57;;;;;;;19.60;16.00;;;16.00;99.90;;;;;;5010361;28;20669;-76
2021/07/16 04:12:24;;;;;;;20.03;15.53;;;15.90;99.90;;;;;;5011668;28;20243;-75
2021/07/16 04:14:53;;;;;;;18.83;15.83;;;15.80;99.90;;;;;;5002844;28;20295;-76
2021/07/16 04:17:23;;;;;;;19.37;16.60;;;15.70;99.90;;;;;;5013419;28;20287;-76
2021/07/16 04:19:50;;;;;;;19.30;15.87;;;15.60;99.90;;;;;;5003501;28;20260;-75
2021/07/16 04:22:18;;;;;;;23.77;16.83;;;15.60;99.90;;;;;;4994762;28;20289;-75
2021/07/16 04:24:46;;;;;;;20.60;16.97;;;15.40;99.90;;;;;;4994856;28;20609;-75
2021/07/16 04:27:14;;;;;;;21.43;17.60;;;15.40;99.90;;;;;;4995487;28;20244;-75
2021/07/16 04:29:42;;;;;;;19.57;16.17;;;15.40;99.90;;;;;;5013889;28;20288;-75
2021/07/16 04:32:10;;;;;;;21.17;17.50;;;15.30;99.90;;;;;;5014092;28;20233;-75
2021/07/16 04:34:40;;;;;;;24.10;17.73;;;15.30;99.90;;;;;;5014711;28;20247;-75
2021/07/16 04:37:09;;;;;;;21.07;17.63;;;15.20;99.90;;;;;;5014125;28;20295;-76
2021/07/16 04:39:36;;;;;;;20.57;17.40;;;15.30;99.90;;;;;;5014293;28;20240;-76
2021/07/16 04:42:04;;;;;;;20.77;17.57;;;15.20;99.90;;;;;;5012684;28;20289;-75
2021/07/16 04:44:32;;;;;;;22.03;17.20;;;15.20;99.90;;;;;;5014078;28;20247;-75
2021/07/16 04:46:59;;;;;;;23.20;17.50;;;15.10;99.90;;;;;;5014038;28;20201;-75
2021/07/16 04:49:26;;;;;;;21.70;17.67;;;15.10;99.90;;;;;;5014388;28;20271;-75
2021/07/16 04:51:55;;;;;;;20.87;17.00;;;15.10;99.90;;;;;;5006082;28;20202;-75
2021/07/16 04:54:22;;;;;;;25.47;18.40;;;15.10;99.90;;;;;;4995268;28;20229;-75
2021/07/16 04:56:49;;;;;;;23.10;19.03;;;15.10;99.90;;;;;;5005799;28;20288;-75
2021/07/16 04:59:16;;;;;;;23.07;19.20;;;15.20;99.90;;;;;;5013043;28;20640;-74
2021/07/16 05:01:43;;;;;;;25.57;19.57;;;15.30;99.90;;;;;;4994516;28;20284;-76
2021/07/16 05:04:10;;;;;;;23.33;19.30;;;15.30;99.90;;;;;;4994312;28;20245;-75
2021/07/16 05:06:37;;;;;;;23.40;18.57;;;15.40;99.90;;;;;;5007200;28;20301;-76
2021/07/16 05:09:05;;;;;;;23.20;18.67;;;15.50;99.90;;;;;;5013220;28;20275;-75
2021/07/16 05:11:33;;;;;;;24.10;19.87;;;15.50;99.90;;;;;;5013547;28;20292;-75
2021/07/16 05:14:01;;;;;;;26.43;20.53;;;15.50;99.90;;;;;;5013197;28;20623;-77
2021/07/16 05:16:28;;;;;;;26.40;19.73;;;15.60;99.90;;;;;;5013479;28;20661;-76
2021/07/16 05:18:55;;;;;;;25.67;20.20;;;15.60;99.90;;;;;;5013326;28;20349;-75
2021/07/16 05:21:23;;;;;;;24.80;20.13;;;15.70;99.90;;;;;;5013059;28;20228;-75
2021/07/16 05:23:49;;;;;;;24.97;19.73;;;15.80;99.90;;;;;;5013381;28;20613;-76
2021/07/16 05:26:18;;;;;;;25.20;19.60;;;16.00;99.90;;;;;;5013087;28;20236;-76
2021/07/16 05:28:47;;;;;;;26.93;18.83;;;16.10;99.90;;;;;;5013411;28;20589;-76
2021/07/16 05:31:15;;;;;;;22.07;17.80;;;16.20;99.90;;;;;;5013244;28;20300;-76
2021/07/16 05:33:41;;;;;;;22.87;18.43;;;16.40;99.90;;;;;;5013414;28;20205;-76
2021/07/16 05:36:09;;;;;;;22.10;18.17;;;16.60;99.90;;;;;;5009317;28;20295;-76
2021/07/16 05:38:37;;;;;;;21.63;16.80;;;16.80;99.90;;;;;;5013096;28;20231;-77
2021/07/16 05:41:06;;;;;;;20.33;16.83;;;17.20;99.90;;;;;;4998125;28;20237;-76
2021/07/16 05:43:35;;;;;;;17.90;16.10;;;17.70;99.90;;;;;;4993498;28;20252;-78
2021/07/16 05:46:03;;;;;;;19.30;15.18;;;17.90;99.90;;;;;;4993503;28;20244;-77
2021/07/16 05:48:31;;;;;;;17.52;14.30;;;18.20;99.90;;;;;;4993046;28;20688;-76
2021/07/16 05:50:58;;;;;;;16.70;14.30;;;18.30;99.90;;;;;;5007289;28;20205;-76
2021/07/16 05:53:25;;;;;;;17.52;14.05;;;18.50;99.90;;;;;;5011455;28;20289;-76
2021/07/16 05:55:52;;;;;;;16.23;14.52;;;18.80;99.90;;;;;;5012869;28;20288;-75
2021/07/16 05:58:19;;;;;;;16.23;14.52;;;19.20;99.90;;;;;;5012574;28;20735;-76
2021/07/16 06:00:48;;;;;;;15.15;13.43;;;19.10;99.90;;;;;;5012733;28;20232;-75
2021/07/16 06:03:15;;;;;;;17.45;13.77;;;19.40;99.90;;;;;;5007015;28;20686;-75
2021/07/16 06:05:43;;;;;;;16.58;13.95;;;19.90;99.90;;;;;;4998561;28;20304;-76
2021/07/16 06:08:12;;;;;;;14.77;13.15;;;20.10;99.90;;;;;;5002099;28;20323;-76
2021/07/16 06:10:40;;;;;;;15.10;13.50;;;19.70;99.90;;;;;;5001052;28;20254;-74
2021/07/16 06:13:07;;;;;;;13.35;12.05;;;20.20;99.90;;;;;;5011755;28;20296;-77
2021/07/16 06:15:34;;;;;;;14.95;13.07;;;20.60;99.90;;;;;;4993798;28;20293;-76
2021/07/16 06:18:03;;;;;;;12.98;11.30;;;20.50;99.90;;;;;;5008560;28;20347;-75
2021/07/16 06:20:30;;;;;;;13.68;11.57;;;20.70;99.90;;;;;;5011553;28;20684;-76
2021/07/16 06:22:57;;;;;;;13.57;11.32;;;20.30;99.90;;;;;;5012329;28;20284;-76
2021/07/16 06:25:24;;;;;;;13.20;11.07;;;20.50;99.90;;;;;;5011114;28;20280;-76
2021/07/16 06:27:51;;;;;;;12.60;10.65;;;21.10;99.90;;;;;;5011371;28;20287;-76
2021/07/16 06:30:18;;;;;;;11.43;10.32;;;21.60;99.90;;;;;;5012514;28;20197;-76
2021/07/16 06:32:46;;;;;;;12.40;10.68;;;21.50;99.90;;;;;;5011248;28;20719;-76
2021/07/16 06:35:15;;;;;;;10.88;9.30;;;21.90;99.90;;;;;;5012097;28;20201;-76
2021/07/16 06:37:42;;;;;;;10.35;9.35;;;22.10;99.90;;;;;;5005797;28;20627;-77
2021/07/16 06:40:10;;;;;;;9.68;8.68;;;22.80;99.90;;;;;;5012362;28;20201;-77
2021/07/16 06:42:40;;;;;;;11.30;8.30;;;21.80;99.90;;;;;;5012088;28;20240;-77
2021/07/16 06:45:07;;;;;;;9.98;7.18;;;22.00;99.90;;;;;;5007139;28;20197;-77
2021/07/16 06:47:34;;;;;;;7.47;6.63;;;22.10;99.90;;;;;;4999393;28;20225;-76
2021/07/16 06:50:01;;;;;;;8.60;6.85;;;21.90;99.90;;;;;;5011293;28;20235;-77
2021/07/16 06:52:29;;;;;;;9.25;7.03;;;22.80;99.90;;;;;;5006502;28;20252;-77
2021/07/16 06:54:56;;;;;;;7.82;7.10;;;22.90;99.90;;;;;;5010535;28;20289;-76
2021/07/16 06:57:23;;;;;;;9.07;7.15;;;22.80;99.90;;;;;;5011309;28;20648;-77
2021/07/16 06:59:50;;;;;;;8.13;6.82;;;22.70;99.90;;;;;;5006237;28;20708;-76
2021/07/16 07:02:17;;;;;;;6.70;6.00;;;22.40;99.90;;;;;;5010970;28;20751;-76
2021/07/16 07:04:44;;;;;;;7.55;6.75;;;23.20;99.90;;;;;;5010718;28;20233;-77
2021/07/16 07:07:11;;;;;;;8.00;6.40;;;23.20;99.90;;;;;;5011077;28;20259;-77
2021/07/16 07:09:40;;;;;;;10.82;7.18;;;24.30;99.90;;;;;;4994176;28;20765;-76
2021/07/16 07:12:07;;;;;;;9.70;7.05;;;23.40;99.90;;;;;;4997875;28;20289;-76
2021/07/16 07:14:34;;;;;;;8.50;7.25;;;22.40;99.90;;;;;;4993190;28;20240;-76
2021/07/16 07:17:01;;;;;;;7.55;6.30;;;22.10;99.90;;;;;;5007591;28;20347;-76
2021/07/16 07:19:28;;;;;;;10.75;6.55;;;23.00;99.90;;;;;;5004976;28;20332;-77
2021/07/16 07:21:54;;;;;;;6.80;5.75;;;22.20;99.90;;;;;;5002456;28;20233;-76
2021/07/16 07:24:22;;;;;;;8.23;5.60;;;21.10;99.90;;;;;;5011201;28;20228;-75
2021/07/16 07:26:53;;;;;;;6.55;5.68;;;20.60;99.90;;;;;;5011396;28;20247;-76
2021/07/16 07:29:20;;;;;;;8.88;6.15;;;20.20;99.90;;;;;;5004073;28;20197;-76
2021/07/16 07:31:47;;;;;;;7.50;5.75;;;19.60;99.90;;;;;;5010956;28;20294;-77
2021/07/16 07:34:14;;;;;;;6.13;5.13;;;19.60;99.90;;;;;;4997921;28;20276;-76
2021/07/16 07:36:41;;;;;;;9.57;5.32;;;19.60;99.90;;;;;;5011493;28;20286;-76
2021/07/16 07:39:08;;;;;;;7.78;5.00;;;19.60;99.90;;;;;;5011582;28;20315;-76
2021/07/16 07:41:35;;;;;;;6.55;4.95;;;19.90;99.90;;;;;;5011606;28;20308;-76
2021/07/16 07:44:03;;;;;;;10.13;4.85;;;20.00;99.90;;;;;;5001528;28;20226;-76
2021/07/16 07:46:30;;;;;;;7.78;5.57;;;19.70;99.90;;;;;;5002034;28;20205;-75
2021/07/16 07:48:57;;;;;;;6.90;4.95;;;19.90;99.90;;;;;;5013973;28;20664;-76
2021/07/16 07:51:24;;;;;;;6.78;5.20;;;19.90;99.90;;;;;;5014347;28;20650;-76
2021/07/16 07:53:51;;;;;;;6.85;5.05;;;19.90;99.90;;;;;;5013959;28;20224;-75
2021/07/16 07:56:18;;;;;;;6.07;4.80;;;19.70;99.90;;;;;;5014779;28;20288;-76
2021/07/16 07:58:45;;;;;;;7.63;5.32;;;20.00;99.90;;;;;;5013860;28;20311;-76
2021/07/16 08:01:13;;;;;;;8.43;5.18;;;20.40;99.90;;;;;;5014309;28;20284;-76
2021/07/16 08:03:41;;;;;;;16.42;5.80;;;20.20;99.90;;;;;;5014219;28;20247;-76
2021/07/16 08:06:08;;;;;;;8.15;4.63;;;20.80;99.90;;;;;;5013576;28;20325;-76
2021/07/16 08:08:35;;;;;;;7.43;4.55;;;21.20;99.90;;;;;;5012786;28;20670;-76
2021/07/16 08:11:01;;;;;;;6.95;3.80;;;23.00;99.90;;;;;;5015038;28;20289;-76
2021/07/16 08:13:28;;;;;;;7.35;3.72;;;24.30;99.90;;;;;;5004211;28;20284;-77
2021/07/16 08:15:55;;;;;;;5.25;3.80;;;26.00;99.90;;;;;;5014915;28;20205;-76
2021/07/16 08:18:24;;;;;;;6.10;4.15;;;24.30;99.90;;;;;;5005358;28;20642;-77
2021/07/16 08:20:51;;;;;;;14.23;4.75;;;23.80;99.90;;;;;;5001620;28;20865;-77
2021/07/16 08:23:18;;;;;;;7.63;4.38;;;23.20;99.90;;;;;;5005842;28;20617;-76
2021/07/16 08:25:44;;;;;;;6.65;4.60;;;22.10;99.90;;;;;;4994351;28;20766;-76
2021/07/16 08:28:11;;;;;;;4.28;3.88;;;21.50;99.90;;;;;;4997286;28;20259;-76
2021/07/16 08:30:39;;;;;;;8.00;4.55;;;22.20;99.90;;;;;;5013429;28;20288;-76
2021/07/16 08:33:06;;;;;;;9.30;4.78;;;21.90;99.90;;;;;;5012711;28;20297;-76
2021/07/16 08:35:35;;;;;;;6.70;4.57;;;21.20;99.90;;;;;;5014266;28;20292;-76
2021/07/16 08:38:02;;;;;;;6.30;4.60;;;21.00;99.90;;;;;;5013943;28;20239;-76
2021/07/16 08:40:29;;;;;;;7.18;4.68;;;20.90;99.90;;;;;;5008510;28;20226;-76
2021/07/16 08:42:58;;;;;;;5.32;4.80;;;21.30;99.90;;;;;;5001180;28;20624;-76
2021/07/16 08:45:26;;;;;;;7.30;4.72;;;21.70;99.90;;;;;;5002341;28;20280;-76
2021/07/16 08:47:53;;;;;;;6.07;4.20;;;22.10;99.90;;;;;;5001926;28;20202;-76
2021/07/16 08:50:20;;;;;;;7.18;4.20;;;22.20;99.90;;;;;;4998051;28;20227;-76
2021/07/16 08:52:49;;;;;;;6.50;3.85;;;24.10;99.90;;;;;;4994093;28;20288;-76
2021/07/16 08:55:18;;;;;;;3.85;3.45;;;24.70;99.90;;;;;;5011562;28;20724;-76
2021/07/16 08:57:45;;;;;;;6.00;3.92;;;25.30;99.90;;;;;;5013315;28;20199;-76
2021/07/16 09:00:14;;;;;;;5.72;3.70;;;25.90;99.90;;;;;;5012588;28;20919;-77
2021/07/16 09:02:54;;;;;;;4.72;3.50;;;25.00;99.90;;;;;;5007992;28;20292;-77
2021/07/16 09:05:32;;;;;;;4.07;3.20;;;24.00;99.90;;;;;;5010065;28;20197;-77
2021/07/16 09:08:01;;;;;;;4.43;3.20;;;25.70;99.90;;;;;;5006642;28;21856;-77
2021/07/16 09:10:28;;;;;;;4.72;3.13;;;27.10;99.90;;;;;;5012635;28;20287;-77
2021/07/16 09:13:00;;;;;;;5.40;3.58;;;27.40;99.90;;;;;;5011631;28;20211;-77
2021/07/16 09:15:28;;;;;;;5.13;3.40;;;27.10;99.90;;;;;;5006529;28;20288;-77
2021/07/16 09:18:21;;;;;;;5.28;3.50;;;26.90;99.90;;;;;;5013106;28;20363;-77
2021/07/16 09:20:49;;;;;;;4.68;3.53;;;25.50;99.90;;;;;;5011899;28;20224;-76
2021/07/16 09:23:19;;;;;;;5.50;3.70;;;24.20;99.90;;;;;;5003908;28;20647;-77
2021/07/16 09:26:02;;;;;;;7.82;3.78;;;23.00;99.90;;;;;;5011619;28;20229;-76
2021/07/16 09:28:29;;;;;;;5.47;3.85;;;24.30;99.90;;;;;;5013021;28;20201;-77
2021/07/16 09:31:11;;;;;;;5.50;3.65;;;25.70;99.90;;;;;;5013133;28;20669;-77
2021/07/16 09:33:48;;;;;;;6.70;3.42;;;26.50;99.90;;;;;;4997056;28;20558;-76
2021/07/16 09:36:26;;;;;;;4.97;3.70;;;25.40;99.90;;;;;;4999801;28;20236;-77
2021/07/16 09:38:56;;;;;;;4.70;3.38;;;23.70;99.90;;;;;;5001335;28;20312;-77
2021/07/16 09:41:24;;;;;;;5.82;3.75;;;23.90;99.90;;;;;;5009113;28;20280;-77
2021/07/16 09:43:52;;;;;;;6.22;3.60;;;25.80;99.90;;;;;;5007419;28;20296;-76
2021/07/16 09:46:19;;;;;;;4.97;3.35;;;25.30;99.90;;;;;;5005196;28;20657;-77
2021/07/16 09:48:46;;;;;;;5.60;3.70;;;27.00;99.90;;;;;;5009175;28;20284;-77
2021/07/16 09:51:19;;;;;;;6.43;3.40;;;27.10;99.90;;;;;;5012417;28;20291;-77
2021/07/16 09:53:49;;;;;;;5.85;3.85;;;27.30;99.90;;;;;;5012490;28;20288;-77
2021/07/16 09:56:20;;;;;;;5.13;3.75;;;28.50;99.90;;;;;;5012565;28;20208;-78
2021/07/16 09:58:48;;;;;;;6.03;3.80;;;28.50;99.90;;;;;;5012158;28;20193;-77
2021/07/16 10:01:16;;;;;;;7.32;3.65;;;26.10;99.90;;;;;;5012205;28;20225;-77
2021/07/16 10:03:43;;;;;;;6.55;4.20;;;24.20;99.90;;;;;;4998949;28;20225;-76
2021/07/16 10:06:13;;;;;;;5.47;3.80;;;23.20;99.90;;;;;;5009703;28;20288;-76
2021/07/16 10:08:42;;;;;;;4.80;3.78;;;23.60;99.90;;;;;;4995516;28;20761;-77
2021/07/16 10:11:09;;;;;;;5.20;3.72;;;25.00;99.90;;;;;;5001219;28;20201;-77
2021/07/16 10:13:38;;;;;;;4.35;3.65;;;26.40;99.90;;;;;;4995997;28;20559;-76
2021/07/16 10:16:06;;;;;;;5.40;3.60;;;28.10;99.90;;;;;;5007005;28;20724;-77
2021/07/16 10:18:33;;;;;;;9.07;3.70;;;29.00;99.90;;;;;;4994213;28;20233;-77
2021/07/16 10:21:00;;;;;;;6.45;3.75;;;29.30;99.90;;;;;;5005558;28;20307;-77
2021/07/16 10:23:28;;;;;;;4.25;3.38;;;27.80;99.90;;;;;;5012234;28;20205;-77
2021/07/16 10:25:55;;;;;;;6.38;3.72;;;28.40;99.90;;;;;;5011788;28;20232;-76
2021/07/16 10:28:44;;;;;;;4.88;3.42;;;28.40;99.90;;;;;;5011933;28;20237;-77
2021/07/16 10:31:39;;;;;;;4.45;3.33;;;29.10;99.90;;;;;;5012129;28;20680;-77
2021/07/16 10:34:28;;;;;;;6.97;4.07;;;27.80;99.90;;;;;;5005117;28;20201;-74
2021/07/16 10:36:58;;;;;;;6.70;3.80;;;27.20;99.90;;;;;;5003978;28;20210;-78
2021/07/16 10:39:44;;;;;;;6.00;4.00;;;28.10;99.90;;;;;;5011526;28;20256;-75
2021/07/16 10:42:50;;;;;;;4.82;3.90;;;27.80;99.90;;;;;;5011026;28;20205;-78
2021/07/16 10:45:32;;;;;;;4.38;3.20;;;27.10;99.90;;;;;;4991646;28;20201;-77
2021/07/16 10:48:12;;;;;;;4.57;3.72;;;26.90;99.90;;;;;;4998210;28;20206;-77
2021/07/16 10:50:39;;;;;;;5.28;3.60;;;27.30;99.90;;;;;;5009200;28;20221;-77
2021/07/16 10:53:08;;;;;;;4.40;3.85;;;29.00;99.90;;;;;;5000827;28;20228;-77
2021/07/16 10:56:04;;;;;;;4.68;3.78;;;29.60;99.90;;;;;;5011909;28;20209;-77
2021/07/16 10:58:43;;;;;;;4.55;3.53;;;27.30;99.90;;;;;;5010795;28;20766;-76
2021/07/16 11:01:12;;;;;;;5.28;3.88;;;26.80;99.90;;;;;;5010272;28;20306;-76
2021/07/16 11:03:40;;;;;;;5.07;3.90;;;28.40;99.90;;;;;;5010091;28;20205;-76
2021/07/16 11:06:08;;;;;;;6.70;4.00;;;29.00;99.90;;;;;;5002309;28;20197;-76
2021/07/16 11:08:59;;;;;;;4.65;4.10;;;27.80;99.90;;;;;;5010226;28;20287;-75
2021/07/16 11:11:47;;;;;;;5.60;3.95;;;28.30;99.90;;;;;;5010710;28;20237;-76
2021/07/16 11:14:22;;;;;;;4.47;3.92;;;29.40;99.90;;;;;;5005000;28;20197;-74
2021/07/16 11:16:51;;;;;;;4.32;3.78;;;29.20;99.90;;;;;;5009866;28;20678;-77
2021/07/16 11:19:27;;;;;;;4.70;3.90;;;28.40;99.90;;;;;;5010519;28;20284;-77
2021/07/16 11:22:01;;;;;;;4.32;3.85;;;29.30;99.90;;;;;;4998759;28;20288;-78
2021/07/16 11:24:31;;;;;;;4.65;4.00;;;28.00;99.90;;;;;;5015495;28;20224;-77
2021/07/16 11:27:02;;;;;;;6.90;4.18;;;26.80;99.90;;;;;;5014629;28;20200;-77
2021/07/16 11:29:32;;;;;;;5.50;4.25;;;27.30;99.90;;;;;;5011423;28;20303;-78
2021/07/16 11:32:09;;;;;;;5.18;3.67;;;29.20;99.90;;;;;;5011598;28;20687;-78
2021/07/16 11:34:56;;;;;;;5.00;3.85;;;30.00;99.90;;;;;;5014175;28;20231;-78
2021/07/16 11:37:29;;;;;;;5.60;3.88;;;29.90;99.90;;;;;;5010763;28;20226;-78
2021/07/16 11:40:00;;;;;;;4.70;3.50;;;28.70;99.90;;;;;;5008634;28;20604;-78
2021/07/16 11:42:27;;;;;;;4.68;3.60;;;28.10;99.90;;;;;;5009695;28;20212;-78
2021/07/16 11:44:55;;;;;;;7.50;3.95;;;28.60;99.90;;;;;;5011537;28;20360;-78
2021/07/16 11:47:25;;;;;;;5.53;3.78;;;28.50;99.90;;;;;;5014814;28;20300;-77
2021/07/16 11:49:53;;;;;;;4.82;3.53;;;28.30;99.90;;;;;;5010720;28;20208;-78
2021/07/16 11:52:22;;;;;;;5.65;3.63;;;29.20;99.90;;;;;;5010031;28;20259;-78
2021/07/16 11:54:51;;;;;;;5.18;3.83;;;29.60;99.90;;;;;;5004596;28;20759;-78
2021/07/16 11:57:19;;;;;;;3.80;3.05;;;28.80;99.90;;;;;;5012537;28;20256;-77
2021/07/16 11:59:51;;;;;;;4.97;3.50;;;28.60;99.90;;;;;;5007823;28;20252;-77
2021/07/16 12:02:19;;;;;;;4.80;3.33;;;28.00;99.90;;;;;;5014133;28;20287;-77
2021/07/16 12:04:49;;;;;;;5.30;3.35;;;29.30;99.90;;;;;;5001971;28;20289;-78
2021/07/16 12:07:19;;;;;;;6.63;3.42;;;28.70;99.90;;;;;;5011649;28;20304;-78
2021/07/16 12:09:47;;;;;;;6.20;3.65;;;27.70;99.90;;;;;;4998351;28;20308;-77
2021/07/16 12:12:16;;;;;;;7.43;4.53;;;28.30;99.90;;;;;;5003205;28;20252;-78
2021/07/16 12:14:52;;;;;;;5.30;3.30;;;28.90;99.90;;;;;;5012202;28;20197;-77
2021/07/16 12:17:24;;;;;;;5.30;3.60;;;29.10;99.90;;;;;;5014485;28;20200;-78
2021/07/16 12:19:54;;;;;;;4.75;3.58;;;30.50;99.90;;;;;;4997699;28;20229;-77
2021/07/16 12:22:23;;;;;;;5.55;3.45;;;30.60;99.90;;;;;;5010835;28;20225;-77
2021/07/16 12:24:51;;;;;;;5.07;3.80;;;30.30;99.90;;;;;;5014151;28;20269;-77
2021/07/16 12:27:19;;;;;;;5.03;4.20;;;30.20;99.90;;;;;;5014061;28;20284;-78
2021/07/16 12:29:55;;;;;;;6.25;3.60;;;29.40;99.90;;;;;;4997569;28;20194;-77
2021/07/16 12:32:36;;;;;;;6.45;3.97;;;29.20;99.90;;;;;;4999756;28;20224;-78
2021/07/16 12:35:19;;;;;;;5.90;3.95;;;29.60;99.90;;;;;;4994312;28;20202;-77
2021/07/16 12:37:47;;;;;;;5.95;3.83;;;28.80;99.90;;;;;;4996748;28;20197;-77
2021/07/16 12:40:18;;;;;;;8.25;3.97;;;28.70;99.90;;;;;;4995085;28;20348;-77
2021/07/16 12:43:10;;;;;;;5.90;4.10;;;28.50;99.90;;;;;;5012367;28;20201;-77
2021/07/16 12:45:42;;;;;;;4.75;4.00;;;;;;;;;;5004952;28;20501;-76